sensor_id;sensor_type;location;lat;lon;timestamp;temperature;humidity
10492;DHT22;5293;51.464;-2.566;2023-03-01T00:02:20;7.00;99.90
10492;DHT22;5293;51.464;-2.566;2023-03-01T00:04:46;6.90;99.90
10492;DHT22;5293;51.464;-2.566;2023-03-01T00:07:12;6.90;99.90
10492;DHT22;5293;51.464;-2.566;2023-03-01T00:09:37;6.90;99.90
10492;DHT22;5293;51.464;-2.566;2023-03-01T00:12:03;7.00;99.90
10492;DHT22;5293;51.464;-2.566;2023-03-01T00:14:29;7.00;99.90
10492;DHT22;5293;51.464;-2.566;2023-03-01T00:16:55;7.00;99.90
10492;DHT22;5293;51.464;-2.566;2023-03-01T00:19:21;7.00;99.90
10492;DHT22;5293;51.464;-2.566;2023-03-01T00:21:49;7.00;99.90
10492;DHT22;5293;51.464;-2.566;2023-03-01T00:24:15;7.00;99.90
10492;DHT22;5293;51.464;-2.566;2023-03-01T00:26:41;7.00;99.90
10492;DHT22;5293;51.464;-2.566;2023-03-01T00:29:07;7.00;99.90
10492;DHT22;5293;51.464;-2.566;2023-03-01T00:31:33;7.00;99.90
10492;DHT22;5293;51.464;-2.566;2023-03-01T00:34:01;6.90;99.90
10492;DHT22;5293;51.464;-2.566;2023-03-01T00:36:29;6.80;99.90
10492;DHT22;5293;51.464;-2.566;2023-03-01T00:38:55;6.90;99.90
10492;DHT22;5293;51.464;-2.566;2023-03-01T00:41:21;7.00;99.90
10492;DHT22;5293;51.464;-2.566;2023-03-01T00:43:49;7.00;99.90
10492;DHT22;5293;51.464;-2.566;2023-03-01T00:46:18;6.90;99.90
10492;DHT22;5293;51.464;-2.566;2023-03-01T00:48:44;6.90;99.90
10492;DHT22;5293;51.464;-2.566;2023-03-01T00:51:13;6.90;99.90
10492;DHT22;5293;51.464;-2.566;2023-03-01T00:53:39;6.90;99.90
10492;DHT22;5293;51.464;-2.566;2023-03-01T00:56:06;6.90;99.90
10492;DHT22;5293;51.464;-2.566;2023-03-01T00:58:33;6.90;99.90
10492;DHT22;5293;51.464;-2.566;2023-03-01T01:00:59;6.90;99.90
10492;DHT22;5293;51.464;-2.566;2023-03-01T01:03:25;6.90;99.90
10492;DHT22;5293;51.464;-2.566;2023-03-01T01:05:54;6.90;99.90
10492;DHT22;5293;51.464;-2.566;2023-03-01T01:08:20;6.90;99.90
10492;DHT22;5293;51.464;-2.566;2023-03-01T01:10:46;6.90;99.90
10492;DHT22;5293;51.464;-2.566;2023-03-01T01:13:13;6.80;99.90
10492;DHT22;5293;51.464;-2.566;2023-03-01T01:15:39;6.80;99.90
10492;DHT22;5293;51.464;-2.566;2023-03-01T01:18:05;6.80;99.90
10492;DHT22;5293;51.464;-2.566;2023-03-01T01:20:32;6.70;99.90
10492;DHT22;5293;51.464;-2.566;2023-03-01T01:22:58;6.70;99.90
10492;DHT22;5293;51.464;-2.566;2023-03-01T01:25:23;6.70;99.90
10492;DHT22;5293;51.464;-2.566;2023-03-01T01:27:52;6.80;99.90
10492;DHT22;5293;51.464;-2.566;2023-03-01T01:30:17;6.80;99.90
10492;DHT22;5293;51.464;-2.566;2023-03-01T01:32:43;6.70;99.90
10492;DHT22;5293;51.464;-2.566;2023-03-01T01:35:09;6.80;99.90
10492;DHT22;5293;51.464;-2.566;2023-03-01T01:37:35;6.90;99.90
10492;DHT22;5293;51.464;-2.566;2023-03-01T01:40:01;6.80;99.90
10492;DHT22;5293;51.464;-2.566;2023-03-01T01:42:30;6.80;99.90
10492;DHT22;5293;51.464;-2.566;2023-03-01T01:45:24;6.80;99.90
10492;DHT22;5293;51.464;-2.566;2023-03-01T01:47:51;6.80;99.90
10492;DHT22;5293;51.464;-2.566;2023-03-01T01:50:18;6.80;99.90
10492;DHT22;5293;51.464;-2.566;2023-03-01T01:52:45;6.80;99.90
10492;DHT22;5293;51.464;-2.566;2023-03-01T01:55:16;6.80;99.90
10492;DHT22;5293;51.464;-2.566;2023-03-01T01:57:47;6.70;99.90
10492;DHT22;5293;51.464;-2.566;2023-03-01T02:00:17;6.70;99.90
10492;DHT22;5293;51.464;-2.566;2023-03-01T02:02:47;6.70;99.90
10492;DHT22;5293;51.464;-2.566;2023-03-01T02:08:04;6.70;99.90
10492;DHT22;5293;51.464;-2.566;2023-03-01T02:10:33;6.70;99.90
10492;DHT22;5293;51.464;-2.566;2023-03-01T02:13:00;6.70;99.90
10492;DHT22;5293;51.464;-2.566;2023-03-01T02:15:26;6.80;99.90
10492;DHT22;5293;51.464;-2.566;2023-03-01T02:17:53;6.80;99.90
10492;DHT22;5293;51.464;-2.566;2023-03-01T02:20:40;6.80;99.90
10492;DHT22;5293;51.464;-2.566;2023-03-01T02:23:09;6.70;99.90
10492;DHT22;5293;51.464;-2.566;2023-03-01T02:25:40;6.70;99.90
10492;DHT22;5293;51.464;-2.566;2023-03-01T02:30:47;6.60;99.90
10492;DHT22;5293;51.464;-2.566;2023-03-01T02:33:34;6.60;99.90
10492;DHT22;5293;51.464;-2.566;2023-03-01T02:36:04;6.60;99.90
10492;DHT22;5293;51.464;-2.566;2023-03-01T02:38:31;6.60;99.90
10492;DHT22;5293;51.464;-2.566;2023-03-01T02:40:57;6.50;99.90
10492;DHT22;5293;51.464;-2.566;2023-03-01T02:43:27;6.40;99.90
10492;DHT22;5293;51.464;-2.566;2023-03-01T02:45:58;6.40;99.90
10492;DHT22;5293;51.464;-2.566;2023-03-01T02:48:23;6.40;99.90
10492;DHT22;5293;51.464;-2.566;2023-03-01T02:51:26;6.40;99.90
10492;DHT22;5293;51.464;-2.566;2023-03-01T02:56:09;6.30;99.90
10492;DHT22;5293;51.464;-2.566;2023-03-01T02:58:41;6.20;99.90
10492;DHT22;5293;51.464;-2.566;2023-03-01T03:01:14;6.20;99.90
10492;DHT22;5293;51.464;-2.566;2023-03-01T03:03:41;6.20;99.90
10492;DHT22;5293;51.464;-2.566;2023-03-01T03:06:07;6.20;99.90
10492;DHT22;5293;51.464;-2.566;2023-03-01T03:08:33;6.20;99.90
10492;DHT22;5293;51.464;-2.566;2023-03-01T03:10:59;6.30;99.90
10492;DHT22;5293;51.464;-2.566;2023-03-01T03:13:25;6.30;99.90
10492;DHT22;5293;51.464;-2.566;2023-03-01T03:15:54;6.40;99.90
10492;DHT22;5293;51.464;-2.566;2023-03-01T03:18:21;6.40;99.90
10492;DHT22;5293;51.464;-2.566;2023-03-01T03:20:48;6.40;99.90
10492;DHT22;5293;51.464;-2.566;2023-03-01T03:23:19;6.40;99.90
10492;DHT22;5293;51.464;-2.566;2023-03-01T03:25:47;6.50;99.90
10492;DHT22;5293;51.464;-2.566;2023-03-01T03:28:13;6.50;99.90
10492;DHT22;5293;51.464;-2.566;2023-03-01T03:30:41;6.40;99.90
10492;DHT22;5293;51.464;-2.566;2023-03-01T03:33:07;6.40;99.90
10492;DHT22;5293;51.464;-2.566;2023-03-01T03:35:38;6.40;99.90
10492;DHT22;5293;51.464;-2.566;2023-03-01T03:38:06;6.50;99.90
10492;DHT22;5293;51.464;-2.566;2023-03-01T03:40:42;6.50;99.90
10492;DHT22;5293;51.464;-2.566;2023-03-01T03:43:10;6.60;99.90
10492;DHT22;5293;51.464;-2.566;2023-03-01T03:45:36;6.50;99.90
10492;DHT22;5293;51.464;-2.566;2023-03-01T03:48:05;6.50;99.90
10492;DHT22;5293;51.464;-2.566;2023-03-01T03:50:31;6.40;99.90
10492;DHT22;5293;51.464;-2.566;2023-03-01T03:52:57;6.40;99.90
10492;DHT22;5293;51.464;-2.566;2023-03-01T03:55:22;6.50;99.90
10492;DHT22;5293;51.464;-2.566;2023-03-01T03:57:48;6.50;99.90
10492;DHT22;5293;51.464;-2.566;2023-03-01T04:00:20;6.50;99.90
10492;DHT22;5293;51.464;-2.566;2023-03-01T04:02:47;6.50;99.90
10492;DHT22;5293;51.464;-2.566;2023-03-01T04:05:15;6.60;99.90
10492;DHT22;5293;51.464;-2.566;2023-03-01T04:07:42;6.50;99.90
10492;DHT22;5293;51.464;-2.566;2023-03-01T04:10:10;6.40;99.90
10492;DHT22;5293;51.464;-2.566;2023-03-01T04:12:36;6.40;99.90
10492;DHT22;5293;51.464;-2.566;2023-03-01T04:15:04;6.40;99.90
10492;DHT22;5293;51.464;-2.566;2023-03-01T04:17:39;6.50;99.90
10492;DHT22;5293;51.464;-2.566;2023-03-01T04:20:05;6.40;99.90
10492;DHT22;5293;51.464;-2.566;2023-03-01T04:22:32;6.50;99.90
10492;DHT22;5293;51.464;-2.566;2023-03-01T04:24:58;6.40;99.90
10492;DHT22;5293;51.464;-2.566;2023-03-01T04:27:34;6.40;99.90
10492;DHT22;5293;51.464;-2.566;2023-03-01T04:30:00;6.40;99.90
10492;DHT22;5293;51.464;-2.566;2023-03-01T04:32:26;6.40;99.90
10492;DHT22;5293;51.464;-2.566;2023-03-01T04:34:52;6.40;99.90
10492;DHT22;5293;51.464;-2.566;2023-03-01T04:37:17;6.30;99.90
10492;DHT22;5293;51.464;-2.566;2023-03-01T04:39:43;6.30;99.90
10492;DHT22;5293;51.464;-2.566;2023-03-01T04:42:11;6.20;99.90
10492;DHT22;5293;51.464;-2.566;2023-03-01T04:44:37;6.40;99.90
10492;DHT22;5293;51.464;-2.566;2023-03-01T04:47:03;6.30;99.90
10492;DHT22;5293;51.464;-2.566;2023-03-01T04:49:29;6.20;99.90
10492;DHT22;5293;51.464;-2.566;2023-03-01T04:51:55;6.10;99.90
10492;DHT22;5293;51.464;-2.566;2023-03-01T04:54:21;6.20;99.90
10492;DHT22;5293;51.464;-2.566;2023-03-01T04:56:47;6.20;99.90
10492;DHT22;5293;51.464;-2.566;2023-03-01T04:59:12;6.20;99.90
10492;DHT22;5293;51.464;-2.566;2023-03-01T05:01:38;6.20;99.90
10492;DHT22;5293;51.464;-2.566;2023-03-01T05:04:04;6.30;99.90
10492;DHT22;5293;51.464;-2.566;2023-03-01T05:06:31;6.40;99.90
10492;DHT22;5293;51.464;-2.566;2023-03-01T05:08:56;6.40;99.90
10492;DHT22;5293;51.464;-2.566;2023-03-01T05:11:23;6.30;99.90
10492;DHT22;5293;51.464;-2.566;2023-03-01T05:13:48;6.30;99.90
10492;DHT22;5293;51.464;-2.566;2023-03-01T05:16:20;6.30;99.90
10492;DHT22;5293;51.464;-2.566;2023-03-01T05:18:45;6.30;99.90
10492;DHT22;5293;51.464;-2.566;2023-03-01T05:21:13;6.30;99.90
10492;DHT22;5293;51.464;-2.566;2023-03-01T05:23:42;6.40;99.90
10492;DHT22;5293;51.464;-2.566;2023-03-01T05:26:09;6.40;99.90
10492;DHT22;5293;51.464;-2.566;2023-03-01T05:28:34;6.50;99.90
10492;DHT22;5293;51.464;-2.566;2023-03-01T05:31:00;6.40;99.90
10492;DHT22;5293;51.464;-2.566;2023-03-01T05:33:27;6.30;99.90
10492;DHT22;5293;51.464;-2.566;2023-03-01T05:35:53;6.20;99.90
10492;DHT22;5293;51.464;-2.566;2023-03-01T05:38:20;6.20;99.90
10492;DHT22;5293;51.464;-2.566;2023-03-01T05:40:47;6.10;99.90
10492;DHT22;5293;51.464;-2.566;2023-03-01T05:43:14;6.20;99.90
10492;DHT22;5293;51.464;-2.566;2023-03-01T05:45:41;6.10;99.90
10492;DHT22;5293;51.464;-2.566;2023-03-01T05:48:08;6.20;99.90
10492;DHT22;5293;51.464;-2.566;2023-03-01T05:50:40;6.20;99.90
10492;DHT22;5293;51.464;-2.566;2023-03-01T05:53:10;6.20;99.90
10492;DHT22;5293;51.464;-2.566;2023-03-01T05:55:36;6.20;99.90
10492;DHT22;5293;51.464;-2.566;2023-03-01T05:58:04;6.20;99.90
10492;DHT22;5293;51.464;-2.566;2023-03-01T06:00:30;6.30;99.90
10492;DHT22;5293;51.464;-2.566;2023-03-01T06:02:57;6.20;99.90
10492;DHT22;5293;51.464;-2.566;2023-03-01T06:05:24;6.20;99.90
10492;DHT22;5293;51.464;-2.566;2023-03-01T06:07:50;6.30;99.90
10492;DHT22;5293;51.464;-2.566;2023-03-01T06:10:16;6.30;99.90
10492;DHT22;5293;51.464;-2.566;2023-03-01T06:12:43;6.30;99.90
10492;DHT22;5293;51.464;-2.566;2023-03-01T06:15:11;6.30;99.90
10492;DHT22;5293;51.464;-2.566;2023-03-01T06:17:38;6.20;99.90
10492;DHT22;5293;51.464;-2.566;2023-03-01T06:20:11;6.20;99.90
10492;DHT22;5293;51.464;-2.566;2023-03-01T06:22:38;6.10;99.90
10492;DHT22;5293;51.464;-2.566;2023-03-01T06:25:04;6.10;99.90
10492;DHT22;5293;51.464;-2.566;2023-03-01T06:27:30;6.00;99.90
10492;DHT22;5293;51.464;-2.566;2023-03-01T06:29:56;5.90;99.90
10492;DHT22;5293;51.464;-2.566;2023-03-01T06:32:22;6.00;99.90
10492;DHT22;5293;51.464;-2.566;2023-03-01T06:34:48;6.00;99.90
10492;DHT22;5293;51.464;-2.566;2023-03-01T06:37:14;6.00;99.90
10492;DHT22;5293;51.464;-2.566;2023-03-01T06:39:40;6.00;99.90
10492;DHT22;5293;51.464;-2.566;2023-03-01T06:42:08;6.00;99.90
10492;DHT22;5293;51.464;-2.566;2023-03-01T06:44:33;5.90;99.90
10492;DHT22;5293;51.464;-2.566;2023-03-01T06:46:59;6.00;99.90
10492;DHT22;5293;51.464;-2.566;2023-03-01T06:49:25;6.00;99.90
10492;DHT22;5293;51.464;-2.566;2023-03-01T06:51:50;6.00;99.90
10492;DHT22;5293;51.464;-2.566;2023-03-01T06:54:16;6.00;99.90
10492;DHT22;5293;51.464;-2.566;2023-03-01T06:56:46;6.00;99.90
10492;DHT22;5293;51.464;-2.566;2023-03-01T06:59:12;6.00;99.90
10492;DHT22;5293;51.464;-2.566;2023-03-01T07:01:37;6.10;99.90
10492;DHT22;5293;51.464;-2.566;2023-03-01T07:04:04;6.20;99.90
10492;DHT22;5293;51.464;-2.566;2023-03-01T07:06:29;6.20;99.90
10492;DHT22;5293;51.464;-2.566;2023-03-01T07:08:55;6.20;99.90
10492;DHT22;5293;51.464;-2.566;2023-03-01T07:11:21;6.20;99.90
10492;DHT22;5293;51.464;-2.566;2023-03-01T07:13:48;6.10;99.90
10492;DHT22;5293;51.464;-2.566;2023-03-01T07:16:13;6.00;99.90
10492;DHT22;5293;51.464;-2.566;2023-03-01T07:18:40;6.00;99.90
10492;DHT22;5293;51.464;-2.566;2023-03-01T07:21:12;6.00;99.90
10492;DHT22;5293;51.464;-2.566;2023-03-01T07:23:38;6.00;99.90
10492;DHT22;5293;51.464;-2.566;2023-03-01T07:26:04;6.00;99.90
10492;DHT22;5293;51.464;-2.566;2023-03-01T07:28:30;6.00;99.90
10492;DHT22;5293;51.464;-2.566;2023-03-01T07:31:01;6.10;99.90
10492;DHT22;5293;51.464;-2.566;2023-03-01T07:33:26;6.10;99.90
10492;DHT22;5293;51.464;-2.566;2023-03-01T07:36:10;6.20;99.90
10492;DHT22;5293;51.464;-2.566;2023-03-01T07:38:36;6.20;99.90
10492;DHT22;5293;51.464;-2.566;2023-03-01T07:41:03;6.20;99.90
10492;DHT22;5293;51.464;-2.566;2023-03-01T07:43:31;6.30;99.90
10492;DHT22;5293;51.464;-2.566;2023-03-01T07:46:00;6.30;99.90
10492;DHT22;5293;51.464;-2.566;2023-03-01T07:48:27;6.30;99.90
10492;DHT22;5293;51.464;-2.566;2023-03-01T07:50:52;6.30;99.90
10492;DHT22;5293;51.464;-2.566;2023-03-01T07:53:18;6.30;99.90
10492;DHT22;5293;51.464;-2.566;2023-03-01T07:55:44;6.30;99.90
10492;DHT22;5293;51.464;-2.566;2023-03-01T07:58:09;6.30;99.90
10492;DHT22;5293;51.464;-2.566;2023-03-01T08:00:35;6.40;99.90
10492;DHT22;5293;51.464;-2.566;2023-03-01T08:03:01;6.30;99.90
10492;DHT22;5293;51.464;-2.566;2023-03-01T08:05:27;6.30;99.90
10492;DHT22;5293;51.464;-2.566;2023-03-01T08:07:53;6.40;99.90
10492;DHT22;5293;51.464;-2.566;2023-03-01T08:10:19;6.50;99.90
10492;DHT22;5293;51.464;-2.566;2023-03-01T08:12:45;6.40;99.90
10492;DHT22;5293;51.464;-2.566;2023-03-01T08:15:11;6.50;99.90
10492;DHT22;5293;51.464;-2.566;2023-03-01T08:17:37;6.50;99.90
10492;DHT22;5293;51.464;-2.566;2023-03-01T08:20:03;6.50;99.90
10492;DHT22;5293;51.464;-2.566;2023-03-01T08:22:32;6.60;99.90
10492;DHT22;5293;51.464;-2.566;2023-03-01T08:24:58;6.60;99.90
10492;DHT22;5293;51.464;-2.566;2023-03-01T08:27:23;6.60;99.90
10492;DHT22;5293;51.464;-2.566;2023-03-01T08:29:49;6.50;99.90
10492;DHT22;5293;51.464;-2.566;2023-03-01T08:32:14;6.50;99.90
10492;DHT22;5293;51.464;-2.566;2023-03-01T08:34:40;6.60;99.90
10492;DHT22;5293;51.464;-2.566;2023-03-01T08:37:06;6.60;99.90
10492;DHT22;5293;51.464;-2.566;2023-03-01T08:39:32;6.70;99.90
10492;DHT22;5293;51.464;-2.566;2023-03-01T08:41:57;6.60;99.90
10492;DHT22;5293;51.464;-2.566;2023-03-01T08:44:23;6.60;99.90
10492;DHT22;5293;51.464;-2.566;2023-03-01T08:46:50;6.60;99.90
10492;DHT22;5293;51.464;-2.566;2023-03-01T08:49:18;6.70;99.90
10492;DHT22;5293;51.464;-2.566;2023-03-01T08:51:46;6.60;99.90
10492;DHT22;5293;51.464;-2.566;2023-03-01T08:54:15;6.50;99.90
10492;DHT22;5293;51.464;-2.566;2023-03-01T08:56:41;6.60;99.90
10492;DHT22;5293;51.464;-2.566;2023-03-01T08:59:07;6.70;99.90
10492;DHT22;5293;51.464;-2.566;2023-03-01T09:01:34;6.60;99.90
10492;DHT22;5293;51.464;-2.566;2023-03-01T09:04:00;6.70;99.90
10492;DHT22;5293;51.464;-2.566;2023-03-01T09:06:25;6.70;99.90
10492;DHT22;5293;51.464;-2.566;2023-03-01T09:08:51;6.80;99.90
10492;DHT22;5293;51.464;-2.566;2023-03-01T09:11:20;6.80;99.90
10492;DHT22;5293;51.464;-2.566;2023-03-01T09:13:47;6.80;99.90
10492;DHT22;5293;51.464;-2.566;2023-03-01T09:16:14;6.70;99.90
10492;DHT22;5293;51.464;-2.566;2023-03-01T09:18:40;6.60;99.90
10492;DHT22;5293;51.464;-2.566;2023-03-01T09:21:08;6.90;99.90
10492;DHT22;5293;51.464;-2.566;2023-03-01T09:23:38;6.80;99.90
10492;DHT22;5293;51.464;-2.566;2023-03-01T09:26:23;6.80;99.90
10492;DHT22;5293;51.464;-2.566;2023-03-01T09:28:52;6.60;99.90
10492;DHT22;5293;51.464;-2.566;2023-03-01T09:31:19;6.60;99.90
10492;DHT22;5293;51.464;-2.566;2023-03-01T09:33:49;6.60;99.90
10492;DHT22;5293;51.464;-2.566;2023-03-01T09:36:18;6.70;99.90
10492;DHT22;5293;51.464;-2.566;2023-03-01T09:38:45;6.90;99.90
10492;DHT22;5293;51.464;-2.566;2023-03-01T09:46:59;7.20;99.90
10492;DHT22;5293;51.464;-2.566;2023-03-01T09:49:28;7.00;99.90
10492;DHT22;5293;51.464;-2.566;2023-03-01T09:52:06;7.00;99.90
10492;DHT22;5293;51.464;-2.566;2023-03-01T09:54:36;7.00;99.90
10492;DHT22;5293;51.464;-2.566;2023-03-01T09:57:35;7.10;99.90
10492;DHT22;5293;51.464;-2.566;2023-03-01T10:01:03;6.90;99.90
10492;DHT22;5293;51.464;-2.566;2023-03-01T10:08:41;6.80;99.90
10492;DHT22;5293;51.464;-2.566;2023-03-01T10:11:38;6.80;99.90
10492;DHT22;5293;51.464;-2.566;2023-03-01T10:17:32;7.00;99.90
10492;DHT22;5293;51.464;-2.566;2023-03-01T10:20:24;7.10;99.90
10492;DHT22;5293;51.464;-2.566;2023-03-01T10:22:51;7.10;99.90
10492;DHT22;5293;51.464;-2.566;2023-03-01T10:28:31;7.30;99.90
10492;DHT22;5293;51.464;-2.566;2023-03-01T10:31:01;7.30;99.90
10492;DHT22;5293;51.464;-2.566;2023-03-01T10:33:31;7.40;99.90
10492;DHT22;5293;51.464;-2.566;2023-03-01T10:35:57;7.50;99.90
10492;DHT22;5293;51.464;-2.566;2023-03-01T10:38:23;7.40;99.90
10492;DHT22;5293;51.464;-2.566;2023-03-01T10:40:59;7.50;99.90
10492;DHT22;5293;51.464;-2.566;2023-03-01T10:43:40;7.50;99.90
10492;DHT22;5293;51.464;-2.566;2023-03-01T10:46:35;7.40;99.90
10492;DHT22;5293;51.464;-2.566;2023-03-01T10:49:22;7.30;99.90
10492;DHT22;5293;51.464;-2.566;2023-03-01T10:51:50;7.30;99.90
10492;DHT22;5293;51.464;-2.566;2023-03-01T10:54:20;7.30;99.90
10492;DHT22;5293;51.464;-2.566;2023-03-01T10:56:58;7.20;99.90
10492;DHT22;5293;51.464;-2.566;2023-03-01T10:59:35;7.30;99.90
10492;DHT22;5293;51.464;-2.566;2023-03-01T11:02:30;7.40;99.90
10492;DHT22;5293;51.464;-2.566;2023-03-01T11:07:52;7.50;99.90
10492;DHT22;5293;51.464;-2.566;2023-03-01T11:10:30;7.60;99.90
10492;DHT22;5293;51.464;-2.566;2023-03-01T11:13:29;7.80;99.90
10492;DHT22;5293;51.464;-2.566;2023-03-01T11:16:03;7.80;99.90
10492;DHT22;5293;51.464;-2.566;2023-03-01T11:18:31;7.90;99.90
10492;DHT22;5293;51.464;-2.566;2023-03-01T11:20:58;8.00;99.90
10492;DHT22;5293;51.464;-2.566;2023-03-01T11:23:25;8.00;99.90
10492;DHT22;5293;51.464;-2.566;2023-03-01T11:25:58;8.00;99.90
10492;DHT22;5293;51.464;-2.566;2023-03-01T11:28:27;7.80;99.90
10492;DHT22;5293;51.464;-2.566;2023-03-01T11:31:09;7.80;99.90
10492;DHT22;5293;51.464;-2.566;2023-03-01T11:36:44;7.90;99.90
10492;DHT22;5293;51.464;-2.566;2023-03-01T11:39:46;7.90;99.90
10492;DHT22;5293;51.464;-2.566;2023-03-01T11:45:11;8.00;99.90
10492;DHT22;5293;51.464;-2.566;2023-03-01T11:50:47;8.00;99.90
10492;DHT22;5293;51.464;-2.566;2023-03-01T11:53:20;8.10;99.90
10492;DHT22;5293;51.464;-2.566;2023-03-01T11:56:03;8.20;99.90
10492;DHT22;5293;51.464;-2.566;2023-03-01T11:58:58;8.20;99.90
10492;DHT22;5293;51.464;-2.566;2023-03-01T12:10:26;8.70;99.90
10492;DHT22;5293;51.464;-2.566;2023-03-01T12:29:44;8.50;99.90
10492;DHT22;5293;51.464;-2.566;2023-03-01T12:36:06;8.50;99.90
10492;DHT22;5293;51.464;-2.566;2023-03-01T12:41:54;8.50;99.90
10492;DHT22;5293;51.464;-2.566;2023-03-01T12:44:27;8.60;99.90
10492;DHT22;5293;51.464;-2.566;2023-03-01T12:50:36;8.60;99.90
10492;DHT22;5293;51.464;-2.566;2023-03-01T12:52:43;8.50;99.90
10492;DHT22;5293;51.464;-2.566;2023-03-01T12:58:59;8.50;99.90
10492;DHT22;5293;51.464;-2.566;2023-03-01T13:09:34;8.20;99.90
10492;DHT22;5293;51.464;-2.566;2023-03-01T13:12:01;8.40;99.90
10492;DHT22;5293;51.464;-2.566;2023-03-01T13:14:36;8.30;99.90
10492;DHT22;5293;51.464;-2.566;2023-03-01T13:17:02;8.30;99.90
10492;DHT22;5293;51.464;-2.566;2023-03-01T13:19:29;8.30;99.90
10492;DHT22;5293;51.464;-2.566;2023-03-01T13:21:55;8.30;99.90
10492;DHT22;5293;51.464;-2.566;2023-03-01T13:24:37;8.20;99.90
10492;DHT22;5293;51.464;-2.566;2023-03-01T13:29:59;8.20;99.90
10492;DHT22;5293;51.464;-2.566;2023-03-01T13:32:35;8.30;99.90
10492;DHT22;5293;51.464;-2.566;2023-03-01T13:37:42;8.50;99.90
10492;DHT22;5293;51.464;-2.566;2023-03-01T13:42:50;8.70;99.90
10492;DHT22;5293;51.464;-2.566;2023-03-01T13:45:32;8.70;99.90
10492;DHT22;5293;51.464;-2.566;2023-03-01T13:48:02;8.60;99.90
10492;DHT22;5293;51.464;-2.566;2023-03-01T13:50:36;8.70;99.90
10492;DHT22;5293;51.464;-2.566;2023-03-01T13:53:06;8.80;99.90
10492;DHT22;5293;51.464;-2.566;2023-03-01T13:55:43;8.80;99.90
10492;DHT22;5293;51.464;-2.566;2023-03-01T13:58:28;8.70;99.90
10492;DHT22;5293;51.464;-2.566;2023-03-01T14:01:06;8.60;99.90
10492;DHT22;5293;51.464;-2.566;2023-03-01T14:03:33;8.60;99.90
10492;DHT22;5293;51.464;-2.566;2023-03-01T14:08:32;8.50;99.90
10492;DHT22;5293;51.464;-2.566;2023-03-01T14:19:31;8.40;99.90
10492;DHT22;5293;51.464;-2.566;2023-03-01T14:22:23;8.50;99.90
10492;DHT22;5293;51.464;-2.566;2023-03-01T14:24:51;8.60;99.90
10492;DHT22;5293;51.464;-2.566;2023-03-01T14:27:18;8.70;99.90
10492;DHT22;5293;51.464;-2.566;2023-03-01T14:29:45;8.60;99.90
10492;DHT22;5293;51.464;-2.566;2023-03-01T14:32:22;8.60;99.90
10492;DHT22;5293;51.464;-2.566;2023-03-01T14:34:50;8.60;99.90
10492;DHT22;5293;51.464;-2.566;2023-03-01T14:37:34;8.80;99.90
10492;DHT22;5293;51.464;-2.566;2023-03-01T14:40:03;8.90;99.90
10492;DHT22;5293;51.464;-2.566;2023-03-01T14:42:34;8.80;99.90
10492;DHT22;5293;51.464;-2.566;2023-03-01T14:45:02;8.90;99.90
10492;DHT22;5293;51.464;-2.566;2023-03-01T14:47:34;9.00;99.90
10492;DHT22;5293;51.464;-2.566;2023-03-01T14:50:29;9.00;99.90
10492;DHT22;5293;51.464;-2.566;2023-03-01T14:52:58;9.00;99.90
10492;DHT22;5293;51.464;-2.566;2023-03-01T14:55:29;9.00;99.90
10492;DHT22;5293;51.464;-2.566;2023-03-01T14:57:56;9.00;99.90
10492;DHT22;5293;51.464;-2.566;2023-03-01T15:00:28;8.90;99.90
10492;DHT22;5293;51.464;-2.566;2023-03-01T15:02:56;8.80;99.90
10492;DHT22;5293;51.464;-2.566;2023-03-01T15:05:31;8.80;99.90
10492;DHT22;5293;51.464;-2.566;2023-03-01T15:07:59;8.80;99.90
10492;DHT22;5293;51.464;-2.566;2023-03-01T15:10:34;8.80;99.90
10492;DHT22;5293;51.464;-2.566;2023-03-01T15:13:32;8.80;99.90
10492;DHT22;5293;51.464;-2.566;2023-03-01T15:18:33;8.80;99.90
10492;DHT22;5293;51.464;-2.566;2023-03-01T15:21:24;8.80;99.90
10492;DHT22;5293;51.464;-2.566;2023-03-01T15:23:54;8.90;99.90
10492;DHT22;5293;51.464;-2.566;2023-03-01T15:26:35;9.00;99.90
10492;DHT22;5293;51.464;-2.566;2023-03-01T15:29:02;9.00;99.90
10492;DHT22;5293;51.464;-2.566;2023-03-01T15:31:34;8.80;99.90
10492;DHT22;5293;51.464;-2.566;2023-03-01T15:34:09;8.80;99.90
10492;DHT22;5293;51.464;-2.566;2023-03-01T15:36:46;8.90;99.90
10492;DHT22;5293;51.464;-2.566;2023-03-01T15:41:52;8.80;99.90
10492;DHT22;5293;51.464;-2.566;2023-03-01T15:44:33;8.90;99.90
10492;DHT22;5293;51.464;-2.566;2023-03-01T15:46:59;8.90;99.90
10492;DHT22;5293;51.464;-2.566;2023-03-01T15:49:41;8.80;99.90
10492;DHT22;5293;51.464;-2.566;2023-03-01T15:52:27;8.80;99.90
10492;DHT22;5293;51.464;-2.566;2023-03-01T15:55:04;8.80;99.90
10492;DHT22;5293;51.464;-2.566;2023-03-01T15:57:31;8.80;99.90
10492;DHT22;5293;51.464;-2.566;2023-03-01T15:59:56;8.70;99.90
10492;DHT22;5293;51.464;-2.566;2023-03-01T16:02:23;8.70;99.90
10492;DHT22;5293;51.464;-2.566;2023-03-01T16:04:50;8.80;99.90
10492;DHT22;5293;51.464;-2.566;2023-03-01T16:07:16;8.80;99.90
10492;DHT22;5293;51.464;-2.566;2023-03-01T16:09:42;8.80;99.90
10492;DHT22;5293;51.464;-2.566;2023-03-01T16:12:14;8.80;99.90
10492;DHT22;5293;51.464;-2.566;2023-03-01T16:14:41;8.70;99.90
10492;DHT22;5293;51.464;-2.566;2023-03-01T16:17:07;8.70;99.90
10492;DHT22;5293;51.464;-2.566;2023-03-01T16:19:35;8.70;99.90
10492;DHT22;5293;51.464;-2.566;2023-03-01T16:22:02;8.60;99.90
10492;DHT22;5293;51.464;-2.566;2023-03-01T16:24:28;8.50;99.90
10492;DHT22;5293;51.464;-2.566;2023-03-01T16:26:54;8.50;99.90
10492;DHT22;5293;51.464;-2.566;2023-03-01T16:29:19;8.50;99.90
10492;DHT22;5293;51.464;-2.566;2023-03-01T16:31:45;8.60;99.90
10492;DHT22;5293;51.464;-2.566;2023-03-01T16:34:11;8.60;99.90
10492;DHT22;5293;51.464;-2.566;2023-03-01T16:36:38;8.60;99.90
10492;DHT22;5293;51.464;-2.566;2023-03-01T16:39:04;8.50;99.90
10492;DHT22;5293;51.464;-2.566;2023-03-01T16:41:30;8.60;99.90
10492;DHT22;5293;51.464;-2.566;2023-03-01T16:43:56;8.50;99.90
10492;DHT22;5293;51.464;-2.566;2023-03-01T16:46:24;8.50;99.90
10492;DHT22;5293;51.464;-2.566;2023-03-01T16:48:50;8.60;99.90
10492;DHT22;5293;51.464;-2.566;2023-03-01T16:51:16;8.70;99.90
10492;DHT22;5293;51.464;-2.566;2023-03-01T16:53:42;8.60;99.90
10492;DHT22;5293;51.464;-2.566;2023-03-01T16:56:10;8.50;99.90
10492;DHT22;5293;51.464;-2.566;2023-03-01T16:58:36;8.50;99.90
10492;DHT22;5293;51.464;-2.566;2023-03-01T17:01:14;8.40;99.90
10492;DHT22;5293;51.464;-2.566;2023-03-01T17:03:41;8.40;99.90
10492;DHT22;5293;51.464;-2.566;2023-03-01T17:06:11;8.40;99.90
10492;DHT22;5293;51.464;-2.566;2023-03-01T17:08:37;8.30;99.90
10492;DHT22;5293;51.464;-2.566;2023-03-01T17:13:34;8.30;99.90
10492;DHT22;5293;51.464;-2.566;2023-03-01T17:16:02;8.30;99.90
10492;DHT22;5293;51.464;-2.566;2023-03-01T17:18:27;8.40;99.90
10492;DHT22;5293;51.464;-2.566;2023-03-01T17:20:53;8.30;99.90
10492;DHT22;5293;51.464;-2.566;2023-03-01T17:23:19;8.20;99.90
10492;DHT22;5293;51.464;-2.566;2023-03-01T17:25:44;8.20;99.90
10492;DHT22;5293;51.464;-2.566;2023-03-01T17:28:11;8.10;99.90
10492;DHT22;5293;51.464;-2.566;2023-03-01T17:30:40;8.00;99.90
10492;DHT22;5293;51.464;-2.566;2023-03-01T17:33:06;8.00;99.90
10492;DHT22;5293;51.464;-2.566;2023-03-01T17:35:31;8.10;99.90
10492;DHT22;5293;51.464;-2.566;2023-03-01T17:38:01;8.10;99.90
10492;DHT22;5293;51.464;-2.566;2023-03-01T17:40:27;8.00;99.90
10492;DHT22;5293;51.464;-2.566;2023-03-01T17:42:52;7.90;99.90
10492;DHT22;5293;51.464;-2.566;2023-03-01T17:45:18;7.90;99.90
10492;DHT22;5293;51.464;-2.566;2023-03-01T17:47:44;8.00;99.90
10492;DHT22;5293;51.464;-2.566;2023-03-01T17:50:10;8.00;99.90
10492;DHT22;5293;51.464;-2.566;2023-03-01T17:52:36;8.00;99.90